Sunday, August 19, 2018, 1:55 PM EDT
Back to Local

KUNV, State College, University Park Airport

Location: State College, PA, United States Lat: 40.85
Local Time: 1:55 PM EDT (17:55 GMT) Lon: -77.85
Time Zone: US/Eastern Elev: 1240 ft

Show me the last for .
Show Decoded

2018-08-19 12:53 METAR KUNV 191653Z 03005KT 10SM OVC020 21/17 A3001 =
2018-08-19 11:53 METAR KUNV 191553Z 33006KT 7SM OVC020 19/16 A3001 =
2018-08-19 10:53 METAR KUNV 191453Z 05005KT 7SM OVC020 18/16 A3001 =
2018-08-19 09:53 METAR KUNV 191353Z 03008KT 5SM BR OVC020 18/16 A3001 RMK VIS E-NE 3 =
2018-08-19 08:53 METAR KUNV 191253Z 00000KT 10SM OVC060 18/15 A3000 RMK VIS NE 4 =
2018-08-19 07:53 METAR KUNV 191153Z 00000KT 10SM OVC050 18/14 A2998 =
2018-08-19 06:53 METAR KUNV 191053Z 00000KT 10SM OVC040 17/14 A2997 =
2018-08-19 05:53 METAR KUNV 190953Z 00000KT 10SM OVC040 17/15 A2995 =
2018-08-18 21:53 METAR KUNV 190153Z 00000KT 10SM SCT030 19/16 A2994 =
2018-08-18 20:53 METAR KUNV 190053Z 00000KT 10SM SCT045 21/18 A2992 =
2018-08-18 19:53 METAR KUNV 182353Z 00000KT 7SM SCT050 BKN080 20/18 A2990 =
2018-08-18 18:53 METAR KUNV 182253Z 00000KT 7SM FEW010 BKN080 21/18 A2989 =
2018-08-18 17:46 METAR KUNV 182146Z 36007KT 4SM RA BR BKN010 OVC040 20/18 A2988 =
2018-08-18 16:53 METAR KUNV 182053Z 33008KT 7SM SCT010 BKN040 BKN100 21/18 A2986 =
2018-08-18 15:53 METAR KUNV 181953Z 28008KT 10SM BKN040 BKN080 23/18 A2985 =
2018-08-18 14:53 METAR KUNV 181853Z 23009KT 10SM SCT040 27/18 A2985 =

Support USWX by starting your Amazon purchase here.